createdAt,value
2022-08-25T00:02:56.761Z,19.29
2022-08-25T00:08:03.577Z,19.19
2022-08-25T00:13:08.291Z,18.90
2022-08-25T00:18:19.640Z,19.00
2022-08-25T00:23:24.632Z,19.32
2022-08-25T00:28:31.620Z,19.34
2022-08-25T00:33:37.541Z,18.91
2022-08-25T00:38:41.990Z,19.10
2022-08-25T00:43:51.879Z,19.30
2022-08-25T00:49:04.339Z,19.27
2022-08-25T00:54:10.483Z,19.53
2022-08-25T00:59:16.476Z,19.50
2022-08-25T01:04:22.887Z,19.87
2022-08-25T01:09:27.599Z,19.92
2022-08-25T01:14:33.726Z,19.64
2022-08-25T01:19:39.306Z,19.83
2022-08-25T01:24:53.946Z,19.97
2022-08-25T01:29:58.830Z,19.43
2022-08-25T01:35:03.855Z,19.73
2022-08-25T01:40:10.615Z,19.83
2022-08-25T01:45:15.208Z,19.82
2022-08-25T01:50:19.328Z,19.98
2022-08-25T01:55:25.395Z,20.23
2022-08-25T02:00:29.447Z,20.26
2022-08-25T02:05:34.533Z,20.32
2022-08-25T02:10:41.156Z,20.39
2022-08-25T02:15:48.988Z,20.30
2022-08-25T02:20:54.336Z,20.42
2022-08-25T02:25:59.762Z,20.49
2022-08-25T02:31:04.515Z,20.61
2022-08-25T02:36:09.500Z,20.57
2022-08-25T02:41:16.970Z,20.53
2022-08-25T02:46:22.479Z,20.66
2022-08-25T02:51:28.642Z,20.75
2022-08-25T02:56:35.312Z,20.69
2022-08-25T03:01:39.515Z,20.74
2022-08-25T03:06:43.592Z,20.76
2022-08-25T03:11:49.193Z,20.81
2022-08-25T03:16:53.380Z,20.87
2022-08-25T03:21:59.582Z,20.94
2022-08-25T03:27:05.914Z,20.97
2022-08-25T03:32:11.678Z,20.96
2022-08-25T03:37:18.998Z,21.03
2022-08-25T03:42:26.776Z,21.13
2022-08-25T03:47:31.303Z,21.17
2022-08-25T03:52:40.323Z,21.14
2022-08-25T03:57:47.962Z,21.14
2022-08-25T04:02:52.129Z,21.37
2022-08-25T04:07:56.618Z,21.36
2022-08-25T04:13:01.970Z,21.24
2022-08-25T04:18:06.343Z,21.26
2022-08-25T04:23:11.776Z,21.30
2022-08-25T04:28:17.163Z,21.37
2022-08-25T04:33:21.347Z,21.38
2022-08-25T04:38:25.332Z,21.46
2022-08-25T04:43:31.655Z,21.50
2022-08-25T04:48:36.306Z,21.38
2022-08-25T04:53:41.770Z,21.26
2022-08-25T04:58:47.951Z,21.13
2022-08-25T05:03:56.648Z,21.19
2022-08-25T05:09:02.064Z,21.24
2022-08-25T05:14:12.197Z,21.39
2022-08-25T05:19:16.661Z,21.56
2022-08-25T05:24:22.316Z,21.74
2022-08-25T05:29:28.283Z,21.83
2022-08-25T05:34:32.474Z,21.82
2022-08-25T05:39:36.540Z,21.97
2022-08-25T05:44:42.104Z,22.07
2022-08-25T05:49:46.152Z,22.12
2022-08-25T05:54:50.288Z,22.05
2022-08-25T05:59:55.671Z,22.19
2022-08-25T06:04:59.935Z,22.22
2022-08-25T06:10:05.001Z,22.39
2022-08-25T06:15:12.650Z,22.57
2022-08-25T06:20:19.504Z,22.81
2022-08-25T06:25:27.952Z,23.02
2022-08-25T06:30:33.963Z,23.25
2022-08-25T06:35:38.413Z,23.41
2022-08-25T06:40:42.930Z,23.60
2022-08-25T06:45:49.004Z,23.75
2022-08-25T06:50:53.124Z,23.80
2022-08-25T06:56:00.515Z,24.06
2022-08-25T07:01:23.527Z,24.18
2022-08-25T07:06:32.329Z,24.53
2022-08-25T07:11:36.806Z,24.55
2022-08-25T07:16:48.518Z,24.73
2022-08-25T07:21:55.308Z,24.54
2022-08-25T07:26:59.834Z,24.50
2022-08-25T07:32:07.226Z,24.49
2022-08-25T07:37:13.343Z,24.14
2022-08-25T07:42:19.125Z,24.51
2022-08-25T07:47:24.696Z,24.80
2022-08-25T07:52:29.698Z,25.23
2022-08-25T07:57:34.586Z,25.53
2022-08-25T08:02:41.612Z,25.35
2022-08-25T08:07:46.623Z,25.36
2022-08-25T08:12:51.054Z,25.94
2022-08-25T08:17:56.853Z,26.02
2022-08-25T08:23:02.689Z,26.56
2022-08-25T08:28:10.857Z,27.02
2022-08-25T08:33:16.649Z,26.93
2022-08-25T08:38:22.293Z,27.21
2022-08-25T08:43:33.410Z,26.89
2022-08-25T08:48:53.576Z,26.60
2022-08-25T08:54:06.530Z,26.72
2022-08-25T08:59:29.911Z,27.46
2022-08-25T09:04:44.127Z,28.56
2022-08-25T09:09:52.180Z,28.92
2022-08-25T09:15:12.783Z,29.34
2022-08-25T09:20:38.930Z,29.44
2022-08-25T09:25:54.654Z,29.37
2022-08-25T09:31:02.274Z,30.18
2022-08-25T09:36:08.801Z,30.39
2022-08-25T09:41:17.772Z,29.85
2022-08-25T09:46:28.205Z,29.66
2022-08-25T09:51:38.125Z,29.62
2022-08-25T09:56:51.757Z,29.99
2022-08-25T10:01:58.358Z,29.98
2022-08-25T10:07:20.196Z,29.60
2022-08-25T10:12:31.718Z,29.55
2022-08-25T10:17:36.502Z,30.19
2022-08-25T10:22:43.969Z,29.73
2022-08-25T10:27:55.479Z,30.28
2022-08-25T10:33:17.657Z,30.05
2022-08-25T10:38:37.464Z,30.02
2022-08-25T10:43:50.642Z,29.87
2022-08-25T10:49:03.161Z,30.06
2022-08-25T10:54:34.358Z,30.81
2022-08-25T11:00:04.627Z,31.15
2022-08-25T11:05:12.875Z,31.31
2022-08-25T11:10:24.093Z,31.40
2022-08-25T11:15:34.264Z,31.34
2022-08-25T11:20:43.626Z,31.43
2022-08-25T11:25:53.238Z,30.50
2022-08-25T11:30:59.564Z,30.23
2022-08-25T11:36:12.540Z,30.49
2022-08-25T11:41:31.807Z,29.79
2022-08-25T11:46:49.632Z,29.73
2022-08-25T11:51:55.904Z,30.20
2022-08-25T11:57:11.128Z,30.14
2022-08-25T12:02:33.350Z,29.54
2022-08-25T12:08:22.009Z,29.47
2022-08-25T12:13:41.069Z,29.27
2022-08-25T12:18:50.394Z,28.40
2022-08-25T12:24:11.059Z,28.76
2022-08-25T12:29:22.447Z,29.08
2022-08-25T12:34:40.321Z,29.54
2022-08-25T12:39:54.717Z,29.13
2022-08-25T12:45:14.981Z,29.43
2022-08-25T12:50:40.908Z,28.74
2022-08-25T12:55:51.059Z,28.88
2022-08-25T13:01:27.565Z,28.82
2022-08-25T13:06:55.380Z,28.70
2022-08-25T13:12:09.267Z,28.24
2022-08-25T13:17:26.930Z,27.86
2022-08-25T13:22:31.811Z,28.62
2022-08-25T13:27:38.364Z,28.90
2022-08-25T13:32:45.134Z,29.17
2022-08-25T13:37:49.875Z,28.91
2022-08-25T13:42:59.352Z,29.05
2022-08-25T13:48:07.828Z,29.08
2022-08-25T13:53:30.733Z,28.72
2022-08-25T13:58:44.458Z,28.64
2022-08-25T14:03:52.816Z,28.81
2022-08-25T14:09:16.579Z,28.67
2022-08-25T14:14:35.115Z,28.51
2022-08-25T14:19:46.423Z,28.22
2022-08-25T14:24:54.086Z,27.71
2022-08-25T14:29:58.432Z,27.45
2022-08-25T14:35:09.918Z,27.79
2022-08-25T14:40:18.056Z,27.89
2022-08-25T14:45:23.000Z,27.99
2022-08-25T14:50:28.608Z,28.30
2022-08-25T14:55:33.530Z,28.22
2022-08-25T15:00:43.854Z,27.98
2022-08-25T15:05:51.297Z,27.77
2022-08-25T15:10:55.932Z,27.24
2022-08-25T15:16:01.152Z,26.97
2022-08-25T15:21:08.698Z,26.82
2022-08-25T15:26:14.590Z,26.16
2022-08-25T15:31:20.569Z,26.27
2022-08-25T15:36:27.887Z,25.79
2022-08-25T15:41:31.964Z,25.37
2022-08-25T15:46:39.534Z,25.38
2022-08-25T15:51:45.610Z,25.07
2022-08-25T15:56:50.148Z,24.97
2022-08-25T16:01:56.195Z,25.20
2022-08-25T16:07:02.140Z,25.19
2022-08-25T16:12:08.865Z,25.12
2022-08-25T16:17:15.080Z,24.84
2022-08-25T16:22:21.418Z,24.73
2022-08-25T16:27:27.085Z,24.71
2022-08-25T16:32:42.783Z,24.71
2022-08-25T16:37:49.728Z,24.68
2022-08-25T16:42:55.317Z,24.72
2022-08-25T16:47:59.388Z,24.36
2022-08-25T16:53:23.914Z,24.30
2022-08-25T16:58:28.091Z,24.31
2022-08-25T17:03:34.698Z,24.56
2022-08-25T17:08:41.476Z,24.46
2022-08-25T17:13:49.704Z,24.37
2022-08-25T17:18:55.357Z,24.49
2022-08-25T17:24:01.746Z,24.28
2022-08-25T17:29:09.506Z,24.28
2022-08-25T17:34:16.366Z,23.92
2022-08-25T17:39:23.145Z,24.08
2022-08-25T17:44:27.472Z,24.15
2022-08-25T17:49:32.687Z,24.16
2022-08-25T17:54:38.211Z,23.74
2022-08-25T17:59:42.305Z,23.69
2022-08-25T18:04:46.646Z,23.89
2022-08-25T18:09:54.080Z,23.64
2022-08-25T18:14:59.384Z,23.07
2022-08-25T18:20:06.129Z,23.10
2022-08-25T18:25:15.443Z,23.33
2022-08-25T18:30:21.662Z,23.05
2022-08-25T18:35:31.585Z,22.86
2022-08-25T18:40:37.464Z,22.99
2022-08-25T18:45:44.444Z,22.61
2022-08-25T18:50:50.627Z,22.79
2022-08-25T18:55:58.979Z,22.61
2022-08-25T19:01:05.657Z,22.34
2022-08-25T19:06:11.199Z,22.30
2022-08-25T19:11:17.674Z,22.35
2022-08-25T19:16:40.899Z,22.17
2022-08-25T19:21:48.240Z,22.37
2022-08-25T19:26:54.863Z,22.29
2022-08-25T19:32:01.151Z,21.76
2022-08-25T19:37:06.772Z,21.88
2022-08-25T19:42:35.223Z,22.08
2022-08-25T19:47:40.048Z,22.30
2022-08-25T19:52:44.496Z,22.58
2022-08-25T19:57:50.295Z,22.89
2022-08-25T20:02:54.976Z,22.83
2022-08-25T20:07:59.703Z,22.53
2022-08-25T20:13:05.981Z,22.67
2022-08-25T20:18:10.649Z,22.84
2022-08-25T20:23:32.217Z,22.85
2022-08-25T20:28:37.832Z,22.63
2022-08-25T20:33:42.270Z,22.85
2022-08-25T20:38:49.273Z,22.95
2022-08-25T20:43:55.427Z,23.17
2022-08-25T20:49:00.959Z,23.25
2022-08-25T20:54:07.570Z,23.38
2022-08-25T20:59:13.183Z,23.44
2022-08-25T21:04:22.141Z,23.54
2022-08-25T21:09:27.432Z,23.44
2022-08-25T21:14:33.176Z,23.43
2022-08-25T21:19:37.492Z,23.45
2022-08-25T21:24:45.031Z,23.20
2022-08-25T21:29:55.248Z,23.13
2022-08-25T21:34:59.780Z,22.97
2022-08-25T21:40:07.034Z,22.86
2022-08-25T21:45:14.608Z,22.74
2022-08-25T21:50:19.241Z,22.87
2022-08-25T21:55:24.231Z,22.71
2022-08-25T22:00:29.870Z,22.39
2022-08-25T22:05:37.621Z,22.48
2022-08-25T22:10:44.853Z,22.38
2022-08-25T22:15:52.131Z,22.29
2022-08-25T22:20:57.436Z,22.14
2022-08-25T22:26:02.272Z,21.91
2022-08-25T22:31:08.091Z,21.67
2022-08-25T22:36:17.164Z,21.66
2022-08-25T22:41:24.056Z,21.71
2022-08-25T22:46:32.578Z,21.57
2022-08-25T22:51:37.693Z,21.61
2022-08-25T22:56:42.493Z,21.75
2022-08-25T23:01:49.747Z,21.58
2022-08-25T23:06:54.165Z,21.75
2022-08-25T23:11:59.370Z,21.65
2022-08-25T23:17:07.492Z,21.73
2022-08-25T23:22:12.933Z,22.18
2022-08-25T23:27:22.620Z,21.79
2022-08-25T23:32:28.233Z,21.82
2022-08-25T23:37:32.563Z,21.45
2022-08-25T23:42:36.551Z,21.24
2022-08-25T23:47:44.214Z,21.13
2022-08-25T23:52:48.215Z,21.46
2022-08-25T23:57:52.234Z,21.31
